createdAt,value
2023-07-15T00:00:38.443Z,19.48
2023-07-15T00:03:40.011Z,19.42
2023-07-15T00:06:41.779Z,19.33
2023-07-15T00:09:43.296Z,19.23
2023-07-15T00:12:44.833Z,19.16
2023-07-15T00:15:51.189Z,19.02
2023-07-15T00:18:52.848Z,18.98
2023-07-15T00:21:54.432Z,18.93
2023-07-15T00:24:56.376Z,18.99
2023-07-15T00:27:57.913Z,18.98
2023-07-15T00:30:59.417Z,18.96
2023-07-15T00:34:01.379Z,18.90
2023-07-15T00:37:02.975Z,18.91
2023-07-15T00:40:07.033Z,18.81
2023-07-15T00:43:46.453Z,18.73
2023-07-15T00:46:56.088Z,18.71
2023-07-15T00:49:58.110Z,18.66
2023-07-15T00:52:59.798Z,18.65
2023-07-15T00:56:01.427Z,18.56
2023-07-15T00:59:03.495Z,18.57
2023-07-15T01:02:05.221Z,18.57
2023-07-15T01:05:07.823Z,18.57
2023-07-15T01:08:09.365Z,18.58
2023-07-15T01:11:12.849Z,18.55
2023-07-15T01:14:14.413Z,18.56
2023-07-15T01:17:16.402Z,18.59
2023-07-15T01:20:23.680Z,18.59
2023-07-15T01:23:26.133Z,18.58
2023-07-15T01:26:27.658Z,18.53
2023-07-15T01:29:29.173Z,18.52
2023-07-15T01:32:30.764Z,18.52
2023-07-15T01:35:32.324Z,18.56
2023-07-15T01:38:34.669Z,18.58
2023-07-15T01:41:36.273Z,18.56
2023-07-15T01:44:37.803Z,18.52
2023-07-15T01:47:39.372Z,18.53
2023-07-15T01:50:41.325Z,18.54
2023-07-15T01:53:42.905Z,18.54
2023-07-15T01:56:44.442Z,18.56
2023-07-15T01:59:45.959Z,18.54
2023-07-15T02:02:48.295Z,18.53
2023-07-15T02:05:52.358Z,18.56
2023-07-15T02:08:56.104Z,18.54
2023-07-15T02:11:58.605Z,18.55
2023-07-15T02:15:00.142Z,18.52
2023-07-15T02:18:01.808Z,18.42
2023-07-15T02:21:03.680Z,18.39
2023-07-15T02:24:05.486Z,18.33
2023-07-15T02:27:06.984Z,18.30
2023-07-15T02:30:10.053Z,18.20
2023-07-15T02:33:12.129Z,18.14
2023-07-15T02:36:15.127Z,18.07
2023-07-15T02:39:17.805Z,18.02
2023-07-15T02:42:19.301Z,17.98
2023-07-15T02:45:20.979Z,18.05
2023-07-15T02:48:23.244Z,18.00
2023-07-15T02:51:25.290Z,17.94
2023-07-15T02:54:26.870Z,17.87
2023-07-15T02:57:29.227Z,17.86
2023-07-15T03:00:30.714Z,17.85
2023-07-15T03:03:35.214Z,17.76
2023-07-15T03:06:37.546Z,17.79
2023-07-15T03:09:39.086Z,17.82
2023-07-15T03:12:41.075Z,17.69
2023-07-15T03:15:43.543Z,17.71
2023-07-15T03:18:45.249Z,17.73
2023-07-15T03:21:46.884Z,17.74
2023-07-15T03:24:48.783Z,17.70
2023-07-15T03:27:51.001Z,17.70
2023-07-15T03:30:53.222Z,17.64
2023-07-15T03:33:54.989Z,17.63
2023-07-15T03:36:56.489Z,17.68
2023-07-15T03:39:58.389Z,17.70
2023-07-15T03:42:59.880Z,17.69
2023-07-15T03:46:01.495Z,17.66
2023-07-15T03:49:03.142Z,17.68
2023-07-15T03:52:04.996Z,17.64
2023-07-15T03:55:07.298Z,17.63
2023-07-15T03:58:09.736Z,17.63
2023-07-15T04:01:11.888Z,17.65
2023-07-15T04:04:13.514Z,17.62
2023-07-15T04:07:15.118Z,17.54
2023-07-15T04:10:17.244Z,17.58
2023-07-15T04:13:19.049Z,17.60
2023-07-15T04:16:20.633Z,17.67
2023-07-15T04:19:22.199Z,17.72
2023-07-15T04:22:24.810Z,17.77
2023-07-15T04:25:26.333Z,17.87
2023-07-15T04:28:27.854Z,17.97
2023-07-15T04:31:29.590Z,18.05
2023-07-15T04:34:31.204Z,18.18
2023-07-15T04:37:32.752Z,18.28
2023-07-15T04:40:34.268Z,18.41
2023-07-15T04:43:35.768Z,18.61
2023-07-15T04:46:38.095Z,18.85
2023-07-15T04:49:39.715Z,19.04
2023-07-15T04:52:41.242Z,19.18
2023-07-15T04:55:43.637Z,19.21
2023-07-15T04:58:45.201Z,19.27
2023-07-15T05:01:46.722Z,19.31
2023-07-15T05:04:48.872Z,19.42
2023-07-15T05:07:58.348Z,19.51
2023-07-15T05:11:00.796Z,19.60
2023-07-15T05:14:02.437Z,19.71
2023-07-15T05:17:07.530Z,19.79
2023-07-15T05:20:09.542Z,19.88
2023-07-15T05:23:11.239Z,20.01
2023-07-15T05:26:12.855Z,20.12
2023-07-15T05:29:14.372Z,20.28
2023-07-15T05:32:16.004Z,20.38
2023-07-15T05:35:17.848Z,20.48
2023-07-15T05:38:22.818Z,20.58
2023-07-15T05:41:25.748Z,20.73
2023-07-15T05:44:28.021Z,20.87
2023-07-15T05:47:29.803Z,21.05
2023-07-15T05:50:35.965Z,21.20
2023-07-15T05:53:37.502Z,21.34
2023-07-15T05:56:39.553Z,21.54
2023-07-15T05:59:41.758Z,21.75
2023-07-15T06:02:43.805Z,21.91
2023-07-15T06:05:45.469Z,22.11
2023-07-15T06:08:47.280Z,22.24
2023-07-15T06:11:48.829Z,22.40
2023-07-15T06:14:56.920Z,22.57
2023-07-15T06:18:00.417Z,22.73
2023-07-15T06:21:02.682Z,22.85
2023-07-15T06:24:07.903Z,22.92
2023-07-15T06:27:09.596Z,23.10
2023-07-15T06:30:11.410Z,23.27
2023-07-15T06:33:26.622Z,23.47
2023-07-15T06:36:30.074Z,23.71
2023-07-15T06:39:31.783Z,23.95
2023-07-15T06:42:35.866Z,24.17
2023-07-15T06:45:37.587Z,24.27
2023-07-15T06:48:39.273Z,24.49
2023-07-15T06:51:40.876Z,24.91
2023-07-15T06:54:42.438Z,25.12
2023-07-15T06:57:44.010Z,25.28
2023-07-15T07:00:45.547Z,25.31
2023-07-15T07:03:47.182Z,25.14
2023-07-15T07:06:48.782Z,25.05
2023-07-15T07:09:50.562Z,25.18
2023-07-15T07:12:52.380Z,25.72
2023-07-15T07:15:58.208Z,26.31
2023-07-15T07:18:59.994Z,26.63
2023-07-15T07:22:01.569Z,26.94
2023-07-15T07:25:03.478Z,27.00
2023-07-15T07:28:05.047Z,26.90
2023-07-15T07:31:06.974Z,27.03
2023-07-15T07:34:08.485Z,27.16
2023-07-15T07:37:10.047Z,27.22
2023-07-15T07:40:12.310Z,27.41
2023-07-15T07:43:14.135Z,27.60
2023-07-15T07:46:15.781Z,27.82
2023-07-15T07:49:18.160Z,27.99
2023-07-15T07:52:19.733Z,28.26
2023-07-15T07:55:21.252Z,28.51
2023-07-15T07:58:22.951Z,28.82
2023-07-15T08:01:25.509Z,29.19
2023-07-15T08:04:27.983Z,29.42
2023-07-15T08:07:30.148Z,29.25
2023-07-15T08:10:31.813Z,28.93
2023-07-15T08:13:33.331Z,28.66
2023-07-15T08:16:37.191Z,28.66
2023-07-15T08:19:38.772Z,28.80
2023-07-15T08:22:40.303Z,28.82
2023-07-15T08:25:41.975Z,28.78
2023-07-15T08:28:43.450Z,28.76
2023-07-15T08:31:45.007Z,28.93
2023-07-15T08:35:06.310Z,29.25
2023-07-15T08:38:07.836Z,29.45
2023-07-15T08:41:10.228Z,29.53
2023-07-15T08:44:12.120Z,29.74
2023-07-15T08:47:18.498Z,29.96
2023-07-15T08:50:20.826Z,30.06
2023-07-15T08:53:27.013Z,30.07
2023-07-15T08:56:30.307Z,30.10
2023-07-15T08:59:32.206Z,30.17
2023-07-15T09:02:35.931Z,30.38
2023-07-15T09:05:37.499Z,30.62
2023-07-15T09:08:42.061Z,30.64
2023-07-15T09:11:44.815Z,30.65
2023-07-15T09:14:54.049Z,30.38
2023-07-15T09:17:59.065Z,29.63
2023-07-15T09:21:14.732Z,29.21
2023-07-15T09:24:16.744Z,29.06
2023-07-15T09:27:18.270Z,28.99
2023-07-15T09:30:20.609Z,29.04
2023-07-15T09:33:32.125Z,29.07
2023-07-15T09:36:33.906Z,29.11
2023-07-15T09:39:35.734Z,29.18
2023-07-15T09:42:49.626Z,29.26
2023-07-15T09:45:51.485Z,29.48
2023-07-15T09:48:53.133Z,29.53
2023-07-15T09:51:55.073Z,29.77
2023-07-15T09:54:57.221Z,30.30
2023-07-15T09:58:09.338Z,30.85
2023-07-15T10:01:38.435Z,31.40
2023-07-15T10:04:49.896Z,31.75
2023-07-15T10:07:52.997Z,31.25
2023-07-15T10:10:54.574Z,30.92
2023-07-15T10:13:56.151Z,30.49
2023-07-15T10:17:33.955Z,30.25
2023-07-15T10:20:35.605Z,29.98
2023-07-15T10:23:37.354Z,29.87
2023-07-15T10:26:49.934Z,29.61
2023-07-15T10:30:14.167Z,29.80
2023-07-15T10:33:25.053Z,30.11
2023-07-15T10:36:45.845Z,30.62
2023-07-15T10:39:47.858Z,30.75
2023-07-15T10:43:06.585Z,31.05
2023-07-15T10:46:19.122Z,31.03
2023-07-15T10:49:22.764Z,30.58
2023-07-15T10:52:25.615Z,30.40
2023-07-15T10:55:27.097Z,30.42
2023-07-15T10:58:32.832Z,30.42
2023-07-15T11:01:35.806Z,30.26
2023-07-15T11:04:39.455Z,30.18
2023-07-15T11:07:41.144Z,29.73
2023-07-15T11:10:44.366Z,29.52
2023-07-15T11:13:47.566Z,29.51
2023-07-15T11:17:00.868Z,29.64
2023-07-15T11:20:07.299Z,29.56
2023-07-15T11:23:09.670Z,29.51
2023-07-15T11:26:11.564Z,29.65
2023-07-15T11:29:20.004Z,29.75
2023-07-15T11:32:21.744Z,29.79
2023-07-15T11:35:23.361Z,29.93
2023-07-15T11:38:34.476Z,30.06
2023-07-15T11:41:37.901Z,30.09
2023-07-15T11:44:40.660Z,30.21
2023-07-15T11:47:43.219Z,30.20
2023-07-15T11:50:44.800Z,30.24
2023-07-15T11:53:46.712Z,30.39
2023-07-15T11:56:48.886Z,30.36
2023-07-15T11:59:50.813Z,30.31
2023-07-15T12:02:52.662Z,30.46
2023-07-15T12:05:54.351Z,30.53
2023-07-15T12:09:08.518Z,30.52
2023-07-15T12:12:10.136Z,30.71
2023-07-15T12:15:12.945Z,30.97
2023-07-15T12:18:14.502Z,31.01
2023-07-15T12:21:16.398Z,31.24
2023-07-15T12:24:18.005Z,31.43
2023-07-15T12:27:19.513Z,31.52
2023-07-15T12:30:21.129Z,31.56
2023-07-15T12:33:22.750Z,31.48
2023-07-15T12:36:24.322Z,31.49
2023-07-15T12:39:25.823Z,31.42
2023-07-15T12:42:27.381Z,31.43
2023-07-15T12:45:28.954Z,31.54
2023-07-15T12:48:31.204Z,31.64
2023-07-15T12:51:32.960Z,31.62
2023-07-15T12:54:35.283Z,31.66
2023-07-15T12:57:36.844Z,31.84
2023-07-15T13:00:38.601Z,31.98
2023-07-15T13:03:40.275Z,32.60
2023-07-15T13:06:42.359Z,33.11
2023-07-15T13:09:45.238Z,33.53
2023-07-15T13:12:46.956Z,33.71
2023-07-15T13:15:48.407Z,33.80
2023-07-15T13:18:49.921Z,33.77
2023-07-15T13:21:51.900Z,32.75
2023-07-15T13:24:53.534Z,32.18
2023-07-15T13:27:55.388Z,31.82
2023-07-15T13:30:56.869Z,31.50
2023-07-15T13:33:58.467Z,31.38
2023-07-15T13:36:59.961Z,31.28
2023-07-15T13:40:01.593Z,31.07
2023-07-15T13:43:03.224Z,30.66
2023-07-15T13:46:04.835Z,30.24
2023-07-15T13:49:06.317Z,30.01
2023-07-15T13:52:08.093Z,30.02
2023-07-15T13:55:09.784Z,30.39
2023-07-15T13:58:11.345Z,30.76
2023-07-15T14:01:13.133Z,31.07
2023-07-15T14:04:15.171Z,32.78
2023-07-15T14:07:16.852Z,34.24
2023-07-15T14:10:18.455Z,35.57
2023-07-15T14:13:19.968Z,36.77
2023-07-15T14:16:21.504Z,36.36
2023-07-15T14:19:23.152Z,39.06
2023-07-15T14:22:38.683Z,43.25
2023-07-15T14:25:45.227Z,46.14
2023-07-15T14:28:46.707Z,43.13
2023-07-15T14:31:48.314Z,39.43
2023-07-15T14:34:49.991Z,45.42
2023-07-15T14:37:51.388Z,49.52
2023-07-15T14:40:53.012Z,50.63
2023-07-15T14:43:54.571Z,50.78
2023-07-15T14:46:56.241Z,50.39
2023-07-15T14:49:57.826Z,50.16
2023-07-15T14:53:01.441Z,50.17
2023-07-15T14:56:04.720Z,49.85
2023-07-15T14:59:06.467Z,50.46
2023-07-15T15:02:08.025Z,51.73
2023-07-15T15:05:10.408Z,52.24
2023-07-15T15:08:12.804Z,51.43
2023-07-15T15:11:14.602Z,50.43
2023-07-15T15:14:16.619Z,50.81
2023-07-15T15:17:18.394Z,49.96
2023-07-15T15:20:20.250Z,48.66
2023-07-15T15:23:22.749Z,50.38
2023-07-15T15:26:24.366Z,51.75
2023-07-15T15:29:26.935Z,50.28
2023-07-15T15:32:28.535Z,49.02
2023-07-15T15:35:30.248Z,48.95
2023-07-15T15:38:32.041Z,49.31
2023-07-15T15:41:33.572Z,49.88
2023-07-15T15:44:35.113Z,50.26
2023-07-15T15:47:37.024Z,49.87
2023-07-15T15:50:38.613Z,49.29
2023-07-15T15:53:40.120Z,48.66
2023-07-15T15:56:41.763Z,49.00
2023-07-15T15:59:43.268Z,49.01
2023-07-15T16:02:44.926Z,49.10
2023-07-15T16:05:46.685Z,49.04
2023-07-15T16:08:48.583Z,48.49
2023-07-15T16:11:50.141Z,49.39
2023-07-15T16:14:51.704Z,49.14
2023-07-15T16:17:53.290Z,50.59
2023-07-15T16:20:54.845Z,49.33
2023-07-15T16:23:56.380Z,49.94
2023-07-15T16:26:58.223Z,49.24
2023-07-15T16:29:59.921Z,49.69
2023-07-15T16:33:01.474Z,49.66
2023-07-15T16:36:03.924Z,49.90
2023-07-15T16:39:05.479Z,50.37
2023-07-15T16:42:07.064Z,50.73
2023-07-15T16:45:08.962Z,49.09
2023-07-15T16:48:10.489Z,47.85
2023-07-15T16:51:12.086Z,45.82
2023-07-15T16:54:13.811Z,43.34
2023-07-15T16:57:15.276Z,41.77
2023-07-15T17:00:16.778Z,40.32
2023-07-15T17:03:18.478Z,39.07
2023-07-15T17:06:20.116Z,37.51
2023-07-15T17:09:24.413Z,36.89
2023-07-15T17:12:25.999Z,36.86
2023-07-15T17:15:27.606Z,36.59
2023-07-15T17:18:29.367Z,35.83
2023-07-15T17:21:31.046Z,35.11
2023-07-15T17:24:32.562Z,34.33
2023-07-15T17:27:34.065Z,34.12
2023-07-15T17:30:35.578Z,34.07
2023-07-15T17:33:37.141Z,33.60
2023-07-15T17:36:38.664Z,33.02
2023-07-15T17:39:40.247Z,32.70
2023-07-15T17:42:41.791Z,32.31
2023-07-15T17:45:43.902Z,32.09
2023-07-15T17:48:45.418Z,31.76
2023-07-15T17:51:47.549Z,31.28
2023-07-15T17:54:49.065Z,31.02
2023-07-15T17:57:50.573Z,30.77
2023-07-15T18:00:52.188Z,30.36
2023-07-15T18:03:54.347Z,29.98
2023-07-15T18:06:55.969Z,27.56
2023-07-15T18:09:57.513Z,26.03
2023-07-15T18:13:00.045Z,25.83
2023-07-15T18:16:04.648Z,25.97
2023-07-15T18:19:06.725Z,25.74
2023-07-15T18:22:11.026Z,25.37
2023-07-15T18:25:12.592Z,25.12
2023-07-15T18:28:14.096Z,25.20
2023-07-15T18:31:15.858Z,25.07
2023-07-15T18:34:24.432Z,25.14
2023-07-15T18:37:27.505Z,25.21
2023-07-15T18:40:30.436Z,24.71
2023-07-15T18:43:32.526Z,24.64
2023-07-15T18:46:34.174Z,24.51
2023-07-15T18:49:36.080Z,24.49
2023-07-15T18:52:37.751Z,23.85
2023-07-15T18:55:39.341Z,23.57
2023-07-15T18:58:40.956Z,23.86
2023-07-15T19:01:42.527Z,24.18
2023-07-15T19:04:44.178Z,24.19
2023-07-15T19:07:45.718Z,24.12
2023-07-15T19:10:47.285Z,22.58
2023-07-15T19:13:49.018Z,21.56
2023-07-15T19:16:51.362Z,21.53
2023-07-15T19:19:53.002Z,21.63
2023-07-15T19:22:54.693Z,22.11
2023-07-15T19:25:56.348Z,22.22
2023-07-15T19:28:57.915Z,22.18
2023-07-15T19:31:59.394Z,22.18
2023-07-15T19:35:00.961Z,22.13
2023-07-15T19:38:03.094Z,22.10
2023-07-15T19:41:04.672Z,21.96
2023-07-15T19:44:06.250Z,21.84
2023-07-15T19:47:07.993Z,21.97
2023-07-15T19:50:10.024Z,22.02
2023-07-15T19:53:12.229Z,21.67
2023-07-15T19:56:14.103Z,21.52
2023-07-15T19:59:15.846Z,21.47
2023-07-15T20:02:17.416Z,21.30
2023-07-15T20:05:19.144Z,21.23
2023-07-15T20:08:20.697Z,21.26
2023-07-15T20:11:22.287Z,21.43
2023-07-15T20:14:23.929Z,21.25
2023-07-15T20:17:25.582Z,21.27
2023-07-15T20:20:27.170Z,21.44
2023-07-15T20:23:28.661Z,21.66
2023-07-15T20:26:30.253Z,21.75
2023-07-15T20:29:32.201Z,21.75
2023-07-15T20:32:33.700Z,21.83
2023-07-15T20:35:35.277Z,22.04
2023-07-15T20:38:37.101Z,22.09
2023-07-15T20:41:38.763Z,22.20
2023-07-15T20:44:40.408Z,22.29
2023-07-15T20:47:44.034Z,22.39
2023-07-15T20:50:45.742Z,22.45
2023-07-15T20:53:47.409Z,22.42
2023-07-15T20:56:48.918Z,22.52
2023-07-15T20:59:50.796Z,22.42
2023-07-15T21:02:54.439Z,22.35
2023-07-15T21:06:04.396Z,22.27
2023-07-15T21:09:05.912Z,22.21
2023-07-15T21:12:07.861Z,22.20
2023-07-15T21:15:09.802Z,22.18
2023-07-15T21:18:11.391Z,22.15
2023-07-15T21:21:13.028Z,22.15
2023-07-15T21:24:14.604Z,22.17
2023-07-15T21:27:16.237Z,22.18
2023-07-15T21:30:17.888Z,22.13
2023-07-15T21:33:19.416Z,22.17
2023-07-15T21:36:25.937Z,22.16
2023-07-15T21:39:27.501Z,22.14
2023-07-15T21:42:29.067Z,21.94
2023-07-15T21:45:30.629Z,21.83
2023-07-15T21:48:32.202Z,21.85
2023-07-15T21:51:34.008Z,21.72
2023-07-15T21:54:35.528Z,21.59
2023-07-15T21:57:37.100Z,21.42
2023-07-15T22:00:39.882Z,21.43
2023-07-15T22:03:41.679Z,21.54
2023-07-15T22:06:43.306Z,21.70
2023-07-15T22:09:44.914Z,21.57
2023-07-15T22:12:46.485Z,21.51
2023-07-15T22:15:48.057Z,21.52
2023-07-15T22:18:53.964Z,21.37
2023-07-15T22:21:55.830Z,21.27
2023-07-15T22:24:57.326Z,21.25
2023-07-15T22:27:58.886Z,21.10
2023-07-15T22:31:00.674Z,21.06
2023-07-15T22:34:02.268Z,21.02
2023-07-15T22:37:05.067Z,21.03
2023-07-15T22:40:07.379Z,20.98
2023-07-15T22:43:08.885Z,20.87
2023-07-15T22:46:10.467Z,20.74
2023-07-15T22:49:12.029Z,20.63
2023-07-15T22:52:13.536Z,20.55
2023-07-15T22:55:17.305Z,20.58
2023-07-15T22:58:18.895Z,20.62
2023-07-15T23:01:20.604Z,20.66
2023-07-15T23:04:22.190Z,20.55
2023-07-15T23:07:23.810Z,20.53
2023-07-15T23:10:25.357Z,20.45
2023-07-15T23:13:26.915Z,20.47
2023-07-15T23:16:28.501Z,20.30
2023-07-15T23:19:30.045Z,20.24
2023-07-15T23:22:31.806Z,20.26
2023-07-15T23:25:34.140Z,20.23
2023-07-15T23:28:35.756Z,20.23
2023-07-15T23:31:37.547Z,20.20
2023-07-15T23:34:39.056Z,20.22
2023-07-15T23:37:40.686Z,20.31
2023-07-15T23:40:42.384Z,20.44
2023-07-15T23:43:43.881Z,20.51
2023-07-15T23:46:45.412Z,20.53
2023-07-15T23:49:50.127Z,20.25
2023-07-15T23:52:51.813Z,20.15
2023-07-15T23:55:53.320Z,20.07
2023-07-15T23:58:54.843Z,20.07
